FlightSpace

Additional description
No additional description
Departure
  • Poznań-Ławica Airport (EPPO)
  • Local date: Feb 14, 2014
  • Start-up time: 09:58:37 CET (UTC +01:00)
  • Block off time: 09:58:37 CET (UTC +01:00)
  • Take off time: 10:17:16 CET (UTC +01:00)
  • METAR:
    EPPO 140930Z 27015KT 9999 -RA SCT008 BKN010 04/03 Q1005 R10/19//95
Destination
  • Poznań-Ławica Airport (EPPO)
  • Local date: Feb 14, 2014
  • Shut-down time: 11:17:35 CET (UTC +01:00)
  • Block on time: 11:17:35 CET (UTC +01:00)
  • Landing time: 11:13:37 CET (UTC +01:00)
  • METAR:
    EPPO 140930Z 27015KT 9999 -RA SCT008 BKN010 04/03 Q1005 R10/19//95

Flight summary
Hobbs time: 01:18 Block time: 01:18 Flight time: 00:56
Distance: 101 NM Max altitude/level: 3057 ft Number of Landings: 1
Fuel burned: 67.93 l Average fuel consumption: 51.62 l/h
Comments